createdAt,value
2022-11-22T00:01:06.036Z,0.86
2022-11-22T00:03:38.336Z,0.85
2022-11-22T00:06:10.240Z,0.87
2022-11-22T00:08:42.108Z,0.85
2022-11-22T00:11:13.712Z,0.83
2022-11-22T00:13:45.548Z,0.79
2022-11-22T00:16:17.111Z,0.62
2022-11-22T00:18:49.160Z,0.57
2022-11-22T00:21:20.796Z,0.75
2022-11-22T00:23:55.704Z,0.83
2022-11-22T00:26:27.615Z,0.83
2022-11-22T00:28:59.635Z,0.87
2022-11-22T00:31:31.474Z,0.80
2022-11-22T00:34:03.644Z,0.70
2022-11-22T00:36:35.273Z,0.61
2022-11-22T00:39:07.219Z,0.67
2022-11-22T00:41:38.864Z,0.65
2022-11-22T00:44:11.658Z,0.61
2022-11-22T00:46:43.692Z,0.60
2022-11-22T00:49:15.404Z,0.52
2022-11-22T00:51:47.029Z,0.41
2022-11-22T00:54:18.872Z,0.45
2022-11-22T00:56:50.473Z,0.56
2022-11-22T00:59:22.582Z,0.59
2022-11-22T01:01:54.503Z,0.55
2022-11-22T01:04:26.261Z,0.50
2022-11-22T01:06:57.988Z,0.54
2022-11-22T01:09:30.146Z,0.52
2022-11-22T01:12:02.026Z,0.65
2022-11-22T01:14:33.929Z,0.49
2022-11-22T01:17:05.662Z,0.45
2022-11-22T01:19:37.338Z,0.51
2022-11-22T01:22:09.492Z,0.54
2022-11-22T01:24:41.159Z,0.56
2022-11-22T01:27:12.748Z,0.54
2022-11-22T01:29:44.420Z,0.59
2022-11-22T01:32:16.116Z,0.50
2022-11-22T01:34:47.653Z,0.41
2022-11-22T01:37:19.306Z,0.43
2022-11-22T01:39:50.973Z,0.45
2022-11-22T01:42:22.581Z,0.55
2022-11-22T01:44:56.110Z,0.66
2022-11-22T01:47:28.455Z,0.72
2022-11-22T01:50:03.312Z,0.74
2022-11-22T01:52:36.911Z,0.77
2022-11-22T01:55:13.324Z,0.66
2022-11-22T01:57:47.893Z,0.68
2022-11-22T02:00:22.332Z,0.76
2022-11-22T02:02:57.210Z,0.74
2022-11-22T02:05:33.916Z,0.77
2022-11-22T02:08:09.279Z,0.83
2022-11-22T02:10:47.563Z,0.74
2022-11-22T02:13:23.440Z,0.71
2022-11-22T02:15:55.464Z,0.65
2022-11-22T02:18:27.918Z,0.57
2022-11-22T02:21:00.529Z,0.59
2022-11-22T02:23:43.274Z,0.57
2022-11-22T02:26:13.666Z,0.73
2022-11-22T02:28:45.470Z,0.76
2022-11-22T02:31:42.413Z,0.58
2022-11-22T02:34:14.873Z,0.69
2022-11-22T02:36:49.830Z,0.74
2022-11-22T02:39:25.220Z,0.70
2022-11-22T02:41:58.865Z,0.75
2022-11-22T02:44:30.695Z,0.78
2022-11-22T02:47:02.472Z,0.89
2022-11-22T02:49:34.252Z,0.91
2022-11-22T02:52:06.195Z,0.91
2022-11-22T02:54:38.000Z,0.83
2022-11-22T02:57:09.817Z,0.76
2022-11-22T02:59:41.468Z,0.79
2022-11-22T03:02:13.095Z,0.75
2022-11-22T03:04:45.274Z,0.84
2022-11-22T03:07:18.402Z,0.83
2022-11-22T03:09:50.096Z,0.80
2022-11-22T03:12:21.823Z,0.77
2022-11-22T03:14:53.516Z,0.77
2022-11-22T03:17:25.172Z,0.77
2022-11-22T03:19:56.804Z,0.78
2022-11-22T03:22:28.722Z,0.76
2022-11-22T03:25:00.331Z,0.79
2022-11-22T03:27:32.237Z,0.84
2022-11-22T03:30:04.897Z,0.76
2022-11-22T03:32:37.341Z,0.74
2022-11-22T03:35:10.786Z,0.76
2022-11-22T03:37:42.522Z,0.68
2022-11-22T03:40:15.553Z,0.72
2022-11-22T03:42:47.695Z,0.66
2022-11-22T03:45:19.365Z,0.77
2022-11-22T03:47:51.309Z,0.77
2022-11-22T03:50:23.569Z,0.79
2022-11-22T03:52:55.848Z,0.79
2022-11-22T03:55:27.497Z,0.75
2022-11-22T03:57:59.313Z,0.84
2022-11-22T04:00:31.979Z,0.86
2022-11-22T04:03:03.924Z,0.72
2022-11-22T04:05:35.725Z,0.67
2022-11-22T04:08:07.759Z,0.75
2022-11-22T04:10:39.583Z,0.77
2022-11-22T04:13:11.193Z,0.72
2022-11-22T04:15:44.698Z,0.63
2022-11-22T04:18:16.861Z,0.64
2022-11-22T04:21:08.492Z,0.70
2022-11-22T04:23:42.557Z,0.74
2022-11-22T04:26:14.380Z,0.68
2022-11-22T04:29:08.712Z,0.71
2022-11-22T04:31:55.730Z,0.78
2022-11-22T04:34:27.467Z,0.69
2022-11-22T04:36:59.147Z,0.51
2022-11-22T04:39:31.104Z,0.63
2022-11-22T04:42:20.702Z,0.62
2022-11-22T04:44:52.620Z,0.44
2022-11-22T04:47:44.968Z,0.62
2022-11-22T04:50:37.295Z,0.59
2022-11-22T04:53:09.219Z,0.60
2022-11-22T04:55:41.289Z,0.68
2022-11-22T04:58:13.659Z,0.65
2022-11-22T05:00:45.555Z,0.62
2022-11-22T05:03:17.728Z,0.66
2022-11-22T05:05:49.553Z,0.71
2022-11-22T05:08:21.271Z,0.75
2022-11-22T05:10:59.444Z,0.72
2022-11-22T05:13:34.621Z,0.67
2022-11-22T05:16:08.575Z,0.59
2022-11-22T05:18:41.086Z,0.61
2022-11-22T05:21:17.031Z,0.57
2022-11-22T05:23:57.693Z,0.64
2022-11-22T05:26:30.756Z,0.76
2022-11-22T05:29:08.417Z,0.80
2022-11-22T05:31:45.724Z,0.69
2022-11-22T05:34:21.606Z,0.65
2022-11-22T05:36:53.352Z,0.68
2022-11-22T05:39:25.192Z,0.57
2022-11-22T05:41:56.941Z,0.57
2022-11-22T05:44:28.612Z,0.67
2022-11-22T05:47:01.190Z,0.56
2022-11-22T05:49:31.942Z,0.55
2022-11-22T05:52:04.230Z,0.62
2022-11-22T05:54:35.851Z,0.62
2022-11-22T05:57:07.574Z,0.60
2022-11-22T05:59:43.981Z,0.67
2022-11-22T06:02:16.137Z,0.59
2022-11-22T06:04:48.113Z,0.62
2022-11-22T06:07:19.828Z,0.62
2022-11-22T06:09:51.529Z,0.60
2022-11-22T06:12:23.373Z,0.48
2022-11-22T06:14:55.087Z,0.54
2022-11-22T06:17:26.807Z,0.55
2022-11-22T06:20:04.165Z,0.47
2022-11-22T06:22:37.361Z,0.46
2022-11-22T06:25:11.198Z,0.54
2022-11-22T06:27:43.012Z,0.49
2022-11-22T06:30:16.063Z,0.51
2022-11-22T06:32:48.356Z,0.45
2022-11-22T06:35:20.889Z,0.49
2022-11-22T06:37:54.914Z,0.55
2022-11-22T06:40:29.283Z,0.48
2022-11-22T06:43:01.020Z,0.48
2022-11-22T06:45:32.873Z,0.34
2022-11-22T06:48:04.901Z,0.28
2022-11-22T06:50:36.634Z,0.28
2022-11-22T06:53:21.299Z,0.31
2022-11-22T06:56:06.388Z,0.31
2022-11-22T06:58:39.867Z,0.34
2022-11-22T07:01:14.400Z,0.30
2022-11-22T07:03:46.638Z,0.28
2022-11-22T07:06:20.109Z,0.40
2022-11-22T07:08:51.894Z,0.36
2022-11-22T07:11:25.505Z,0.49
2022-11-22T07:14:03.452Z,0.51
2022-11-22T07:16:39.995Z,0.35
2022-11-22T07:19:12.769Z,0.23
2022-11-22T07:21:44.536Z,0.30
2022-11-22T07:24:16.445Z,0.34
2022-11-22T07:26:48.192Z,0.20
2022-11-22T07:29:20.313Z,0.36
2022-11-22T07:31:53.982Z,0.32
2022-11-22T07:34:25.707Z,0.35
2022-11-22T07:37:01.346Z,0.41
2022-11-22T07:39:35.948Z,0.44
2022-11-22T07:42:08.289Z,0.44
2022-11-22T07:44:42.307Z,0.28
2022-11-22T07:47:16.197Z,0.36
2022-11-22T07:49:51.603Z,0.49
2022-11-22T07:52:23.432Z,0.44
2022-11-22T07:54:55.580Z,0.38
2022-11-22T07:57:27.505Z,0.39
2022-11-22T07:59:59.504Z,0.45
2022-11-22T08:02:31.290Z,0.52
2022-11-22T08:05:02.986Z,0.41
2022-11-22T08:07:34.812Z,0.42
2022-11-22T08:10:07.960Z,0.41
2022-11-22T08:12:39.758Z,0.48
2022-11-22T08:15:13.505Z,0.40
2022-11-22T08:17:46.498Z,0.57
2022-11-22T08:20:20.607Z,0.65
2022-11-22T08:22:52.360Z,0.64
2022-11-22T08:25:24.313Z,0.48
2022-11-22T08:27:56.212Z,0.40
2022-11-22T08:30:28.171Z,0.36
2022-11-22T08:33:00.361Z,0.31
2022-11-22T08:35:32.168Z,0.40
2022-11-22T08:38:04.102Z,0.34
2022-11-22T08:40:40.886Z,0.36
2022-11-22T08:43:12.989Z,0.48
2022-11-22T08:45:44.788Z,0.35
2022-11-22T08:48:21.787Z,0.43
2022-11-22T08:50:55.475Z,0.46
2022-11-22T08:53:28.017Z,0.56
2022-11-22T08:56:02.174Z,0.59
2022-11-22T08:58:34.917Z,0.56
2022-11-22T09:01:13.066Z,0.67
2022-11-22T09:03:45.797Z,0.63
2022-11-22T09:12:02.618Z,0.60
2022-11-22T09:14:35.693Z,0.66
2022-11-22T09:17:08.195Z,0.70
2022-11-22T09:19:40.593Z,0.61
2022-11-22T09:22:12.437Z,0.66
2022-11-22T09:24:44.852Z,0.65
2022-11-22T09:27:16.767Z,0.63
2022-11-22T09:29:48.671Z,0.77
2022-11-22T09:32:20.557Z,0.77
2022-11-22T09:34:52.463Z,0.84
2022-11-22T09:37:24.214Z,0.80
2022-11-22T09:39:56.012Z,0.79
2022-11-22T09:42:44.671Z,0.83
2022-11-22T09:45:38.783Z,0.91
2022-11-22T09:48:25.010Z,1.06
2022-11-22T09:51:04.211Z,1.11
2022-11-22T09:53:42.715Z,1.21
2022-11-22T09:56:16.818Z,1.26
2022-11-22T09:58:52.514Z,1.13
2022-11-22T10:01:28.412Z,1.11
2022-11-22T10:04:04.756Z,1.13
2022-11-22T10:06:40.150Z,1.20
2022-11-22T10:09:26.611Z,1.11
2022-11-22T10:12:03.639Z,1.20
2022-11-22T10:14:45.739Z,1.18
2022-11-22T10:17:29.263Z,1.13
2022-11-22T10:20:11.673Z,1.26
2022-11-22T10:22:43.771Z,1.36
2022-11-22T10:25:21.953Z,1.35
2022-11-22T10:28:00.751Z,1.37
2022-11-22T10:30:40.700Z,1.32
2022-11-22T10:33:19.424Z,1.33
2022-11-22T10:36:18.384Z,1.39
2022-11-22T10:39:08.585Z,1.30
2022-11-22T10:42:00.243Z,1.18
2022-11-22T10:44:44.186Z,1.39
2022-11-22T10:47:26.543Z,1.39
2022-11-22T10:50:06.228Z,1.41
2022-11-22T10:52:49.189Z,1.45
2022-11-22T10:55:32.555Z,1.48
2022-11-22T10:58:08.183Z,1.52
2022-11-22T11:00:45.117Z,1.59
2022-11-22T11:03:27.128Z,1.47
2022-11-22T11:06:26.556Z,1.50
2022-11-22T11:09:54.964Z,1.60
2022-11-22T11:11:55.685Z,1.63
2022-11-22T11:14:36.035Z,1.68
2022-11-22T11:17:13.346Z,1.68
2022-11-22T11:19:48.350Z,1.55
2022-11-22T11:22:50.301Z,1.56
2022-11-22T11:28:19.543Z,1.63
2022-11-22T11:30:54.905Z,1.70
2022-11-22T11:33:32.802Z,1.73
2022-11-22T11:36:10.033Z,1.73
2022-11-22T11:38:54.372Z,1.75
2022-11-22T11:41:43.634Z,1.68
2022-11-22T11:44:32.338Z,1.73
2022-11-22T11:47:06.263Z,1.81
2022-11-22T11:49:39.133Z,1.78
2022-11-22T11:52:21.190Z,1.78
2022-11-22T11:54:56.520Z,1.79
2022-11-22T11:57:31.806Z,1.88
2022-11-22T12:00:07.830Z,1.95
2022-11-22T12:02:43.184Z,1.99
2022-11-22T12:05:29.532Z,1.92
2022-11-22T12:08:01.904Z,1.93
2022-11-22T12:10:42.290Z,1.89
2022-11-22T12:13:22.627Z,1.95
2022-11-22T12:15:59.400Z,1.96
2022-11-22T12:18:41.805Z,1.99
2022-11-22T12:21:24.941Z,2.09
2022-11-22T12:24:34.359Z,2.14
2022-11-22T12:26:55.155Z,2.17
2022-11-22T12:29:26.974Z,2.19
2022-11-22T12:32:04.033Z,2.19
2022-11-22T12:34:40.632Z,2.22
2022-11-22T12:37:16.468Z,2.21
2022-11-22T12:39:51.652Z,2.12
2022-11-22T12:42:30.694Z,2.21
2022-11-22T12:45:07.857Z,2.19
2022-11-22T12:47:43.027Z,2.15
2022-11-22T12:50:27.475Z,2.28
2022-11-22T12:53:04.508Z,2.27
2022-11-22T12:55:46.064Z,2.19
2022-11-22T12:58:22.856Z,2.31
2022-11-22T13:01:08.162Z,2.27
2022-11-22T13:03:45.477Z,2.27
2022-11-22T13:06:23.170Z,2.35
2022-11-22T13:09:03.787Z,2.33
2022-11-22T13:11:41.306Z,2.36
2022-11-22T13:14:21.176Z,2.36
2022-11-22T13:16:54.995Z,2.33
2022-11-22T13:19:30.500Z,2.38
2022-11-22T13:22:16.521Z,2.39
2022-11-22T13:25:02.246Z,2.39
2022-11-22T13:27:38.398Z,2.40
2022-11-22T13:30:21.666Z,2.34
2022-11-22T13:32:55.815Z,2.44
2022-11-22T13:35:34.270Z,2.53
2022-11-22T13:38:14.314Z,2.54
2022-11-22T13:40:50.567Z,2.57
2022-11-22T13:43:55.206Z,2.62
2022-11-22T13:46:55.526Z,2.61
2022-11-22T13:49:46.594Z,2.67
2022-11-22T13:52:53.512Z,2.67
2022-11-22T13:55:42.277Z,2.76
2022-11-22T13:58:50.808Z,2.71
2022-11-22T14:01:50.961Z,2.69
2022-11-22T14:04:39.379Z,2.68
2022-11-22T14:07:29.388Z,2.77
2022-11-22T14:10:03.264Z,2.73
2022-11-22T14:12:51.483Z,2.71
2022-11-22T14:15:41.884Z,2.72
2022-11-22T14:18:32.060Z,2.69
2022-11-22T14:21:08.657Z,2.70
2022-11-22T14:23:54.951Z,2.79
2022-11-22T14:26:33.035Z,2.78
2022-11-22T14:29:41.217Z,2.76
2022-11-22T14:32:19.820Z,2.82
2022-11-22T14:35:29.629Z,2.90
2022-11-22T14:38:29.158Z,2.80
2022-11-22T14:41:34.729Z,2.80
2022-11-22T14:44:09.332Z,2.80
2022-11-22T14:46:53.193Z,2.82
2022-11-22T14:49:38.229Z,2.89
2022-11-22T14:52:21.246Z,2.88
2022-11-22T14:54:58.020Z,2.95
2022-11-22T14:57:33.640Z,2.86
2022-11-22T15:00:20.451Z,2.93
2022-11-22T15:03:23.012Z,2.94
2022-11-22T15:09:10.582Z,3.02
2022-11-22T15:09:46.847Z,2.98
2022-11-22T15:12:34.628Z,2.92
2022-11-22T15:57:37.461Z,2.92
2022-11-22T16:00:22.528Z,2.92
2022-11-22T16:02:57.094Z,2.91
2022-11-22T16:06:06.743Z,2.98
2022-11-22T16:08:32.291Z,2.96
2022-11-22T16:11:06.683Z,2.84
2022-11-22T16:13:40.129Z,2.90
2022-11-22T16:16:26.687Z,2.96
2022-11-22T16:19:21.616Z,3.01
2022-11-22T16:22:01.377Z,3.07
2022-11-22T16:24:33.993Z,3.07
2022-11-22T16:27:14.584Z,2.97
2022-11-22T16:29:54.020Z,3.07
2022-11-22T16:32:27.547Z,3.02
2022-11-22T16:35:22.027Z,3.08
2022-11-22T16:37:52.777Z,3.12
2022-11-22T16:40:25.665Z,3.19
2022-11-22T16:42:58.216Z,3.11
2022-11-22T16:45:31.257Z,3.12
2022-11-22T16:48:30.950Z,3.12
2022-11-22T16:51:07.732Z,3.21
2022-11-22T16:53:45.823Z,3.23
2022-11-22T16:56:23.973Z,3.22
2022-11-22T16:58:58.654Z,3.21
2022-11-22T17:01:35.281Z,3.24
2022-11-22T17:04:08.742Z,3.28
2022-11-22T17:06:44.757Z,3.28
2022-11-22T17:09:16.600Z,3.27
2022-11-22T17:11:49.284Z,3.29
2022-11-22T17:14:21.875Z,3.32
2022-11-22T17:16:54.330Z,3.19
2022-11-22T17:22:20.341Z,3.18
2022-11-22T17:24:52.146Z,3.23
2022-11-22T17:27:24.348Z,3.18
2022-11-22T17:29:56.160Z,3.11
2022-11-22T17:32:28.484Z,3.13
2022-11-22T17:35:00.886Z,3.22
2022-11-22T17:37:32.952Z,3.29
2022-11-22T17:40:06.650Z,3.30
2022-11-22T17:42:41.302Z,3.21
2022-11-22T17:45:14.428Z,3.26
2022-11-22T17:47:46.408Z,3.30
2022-11-22T17:50:19.743Z,3.26
2022-11-22T17:52:52.450Z,3.17
2022-11-22T17:55:32.695Z,3.25
2022-11-22T17:58:14.455Z,3.20
2022-11-22T18:00:48.139Z,3.22
2022-11-22T18:03:19.995Z,3.24
2022-11-22T18:05:51.854Z,3.23
2022-11-22T18:08:23.618Z,3.18
2022-11-22T18:10:56.915Z,3.28
2022-11-22T18:13:30.048Z,3.30
2022-11-22T18:16:04.769Z,3.36
2022-11-22T18:21:33.387Z,3.34
2022-11-22T18:24:08.424Z,3.35
2022-11-22T18:26:41.296Z,3.28
2022-11-22T18:32:07.757Z,3.25
2022-11-22T18:34:41.403Z,3.26
2022-11-22T18:37:13.300Z,3.33
2022-11-22T18:39:45.113Z,3.26
2022-11-22T18:42:18.153Z,3.29
2022-11-22T18:44:50.297Z,3.31
2022-11-22T18:47:22.317Z,3.31
2022-11-22T18:49:58.374Z,3.32
2022-11-22T18:52:34.403Z,3.21
2022-11-22T18:55:07.888Z,3.31
2022-11-22T18:57:40.758Z,3.27
2022-11-22T19:00:14.433Z,3.27
2022-11-22T19:02:47.419Z,3.24
2022-11-22T19:05:24.322Z,3.29
2022-11-22T19:07:56.876Z,3.34
2022-11-22T19:10:29.127Z,3.37
2022-11-22T19:13:01.545Z,3.34
2022-11-22T19:15:33.549Z,3.34
2022-11-22T19:18:06.063Z,3.30
2022-11-22T19:20:54.495Z,3.26
2022-11-22T19:23:27.363Z,3.38
2022-11-22T19:25:59.846Z,3.39
2022-11-22T19:28:32.328Z,3.42
2022-11-22T19:31:06.474Z,3.44
2022-11-22T19:33:39.970Z,3.45
2022-11-22T19:36:14.443Z,3.47
2022-11-22T19:38:49.233Z,3.46
2022-11-22T19:41:25.299Z,3.41
2022-11-22T19:43:58.849Z,3.36
2022-11-22T19:46:31.963Z,3.39
2022-11-22T19:49:06.581Z,3.31
2022-11-22T19:51:39.814Z,3.32
2022-11-22T19:54:13.068Z,3.36
2022-11-22T19:56:45.674Z,3.39
2022-11-22T19:59:18.379Z,3.40
2022-11-22T20:01:52.055Z,3.38
2022-11-22T20:04:23.991Z,3.36
2022-11-22T20:06:55.833Z,3.37
2022-11-22T20:09:29.476Z,3.37
2022-11-22T20:12:01.529Z,3.33
2022-11-22T20:14:33.956Z,3.38
2022-11-22T20:17:07.886Z,3.36
2022-11-22T20:19:40.688Z,3.40
2022-11-22T20:22:13.510Z,3.38
2022-11-22T20:24:46.147Z,3.39
2022-11-22T20:27:24.474Z,3.40
2022-11-22T20:30:00.195Z,3.48
2022-11-22T20:32:35.126Z,3.39
2022-11-22T20:35:07.645Z,3.42
2022-11-22T20:37:41.493Z,3.39
2022-11-22T20:40:14.513Z,3.37
2022-11-22T20:42:46.296Z,3.41
2022-11-22T20:45:18.746Z,3.48
2022-11-22T20:47:51.228Z,3.46
2022-11-22T20:50:22.090Z,3.47
2022-11-22T20:52:54.367Z,3.43
2022-11-22T20:55:26.841Z,3.46
2022-11-22T20:58:00.393Z,3.34
2022-11-22T21:00:34.446Z,3.36
2022-11-22T21:03:08.185Z,3.37
2022-11-22T21:05:41.700Z,3.27
2022-11-22T21:08:14.335Z,3.32
2022-11-22T21:10:45.742Z,3.34
2022-11-22T21:13:20.498Z,3.38
2022-11-22T21:15:52.405Z,3.33
2022-11-22T21:18:26.243Z,3.31
2022-11-22T21:21:05.132Z,3.36
2022-11-22T21:23:38.242Z,3.36
2022-11-22T21:26:10.618Z,3.43
2022-11-22T21:28:42.397Z,3.44
2022-11-22T21:31:15.308Z,3.35
2022-11-22T21:33:47.657Z,3.40
2022-11-22T21:36:20.699Z,3.43
2022-11-22T21:38:52.488Z,3.40
2022-11-22T21:41:39.402Z,3.28
2022-11-22T21:44:12.501Z,3.30
2022-11-22T21:46:45.746Z,3.37
2022-11-22T21:49:17.684Z,3.35
2022-11-22T21:51:50.064Z,3.40
2022-11-22T21:54:22.594Z,3.37
2022-11-22T21:56:58.439Z,3.25
2022-11-22T21:59:34.354Z,3.29
2022-11-22T22:02:06.529Z,3.35
2022-11-22T22:04:38.752Z,3.38
2022-11-22T22:07:29.744Z,3.39
2022-11-22T22:10:03.196Z,3.33
2022-11-22T22:12:35.630Z,3.37
2022-11-22T22:15:10.621Z,3.36
2022-11-22T22:17:53.299Z,3.36
2022-11-22T22:20:26.438Z,3.43
2022-11-22T22:22:59.083Z,3.49
2022-11-22T22:25:31.079Z,3.43
2022-11-22T22:28:02.836Z,3.38
2022-11-22T22:30:34.923Z,3.41
2022-11-22T22:33:07.077Z,3.44
2022-11-22T22:35:39.431Z,3.49
2022-11-22T22:38:11.576Z,3.43
2022-11-22T22:40:43.292Z,3.46
2022-11-22T22:43:14.968Z,3.47
2022-11-22T22:45:46.780Z,3.44
2022-11-22T22:48:19.227Z,3.48
2022-11-22T22:50:51.028Z,3.46
2022-11-22T22:53:22.737Z,3.47
2022-11-22T22:55:57.423Z,3.49
2022-11-22T22:58:29.577Z,3.48
2022-11-22T23:01:09.325Z,3.53
2022-11-22T23:03:41.549Z,3.54
2022-11-22T23:06:14.915Z,3.47
2022-11-22T23:08:49.308Z,3.53
2022-11-22T23:11:43.918Z,3.56
2022-11-22T23:14:17.879Z,3.62
2022-11-22T23:16:55.947Z,3.61
2022-11-22T23:19:30.915Z,3.53
2022-11-22T23:22:03.634Z,3.57
2022-11-22T23:24:35.658Z,3.45
2022-11-22T23:27:07.591Z,3.38
2022-11-22T23:29:40.334Z,3.44
2022-11-22T23:32:14.815Z,3.50
2022-11-22T23:34:48.874Z,3.43
2022-11-22T23:37:21.409Z,3.51
2022-11-22T23:39:53.907Z,3.55
2022-11-22T23:42:24.269Z,3.50
2022-11-22T23:44:57.026Z,3.44
2022-11-22T23:47:27.243Z,3.44
2022-11-22T23:49:59.436Z,3.51
2022-11-22T23:52:31.449Z,3.48
2022-11-22T23:55:04.323Z,3.45
2022-11-22T23:57:36.511Z,3.52
